Time;durP1;ratioP1;P1;durP2;ratioP2;P2;SDS_P1;SDS_P2;PMS_P1;PMS_P2;Temp;Humidity;BMP_temperature;BMP_pressure;BME280_temperature;BME280_humidity;BME280_pressure;Samples;Min_cycle;Max_cycle;Signal;HPM_P1;HPM_P2
2022/08/07 00:01:48;;;;;;;9.73;8.10;;;;;;;23.45;64.17;94476.09;6303096;22;20168;-80
2022/08/07 00:04:15;;;;;;;11.77;8.10;;;;;;;23.46;65.26;94465.16;6303471;22;20273;-82
2022/08/07 00:06:43;;;;;;;11.55;8.95;;;;;;;23.36;65.54;94472.56;6304588;22;20171;-81
2022/08/07 00:09:10;;;;;;;9.68;8.30;;;;;;;23.44;64.03;94466.56;6304069;22;20203;-81
2022/08/07 00:11:37;;;;;;;13.82;9.13;;;;;;;23.46;65.80;94467.06;6307918;22;20164;-81
2022/08/07 00:14:04;;;;;;;16.25;8.73;;;;;;;23.46;66.11;94467.06;6303460;22;20183;-81
2022/08/07 00:16:30;;;;;;;12.15;9.05;;;;;;;23.40;66.31;94469.06;6304763;22;20165;-82
2022/08/07 00:18:57;;;;;;;15.82;9.57;;;;;;;23.32;66.47;94483.00;6304867;22;20164;-80
2022/08/07 00:21:24;;;;;;;11.80;8.32;;;;;;;23.27;65.82;94475.16;6304224;22;20165;-81
2022/08/07 00:23:52;;;;;;;11.50;7.78;;;;;;;23.17;65.34;94480.72;6303690;22;20187;-81
2022/08/07 00:26:19;;;;;;;15.45;9.00;;;;;;;23.16;67.15;94485.22;6306479;22;20168;-81
2022/08/07 00:28:46;;;;;;;12.45;8.68;;;;;;;23.13;67.76;94482.38;6303665;22;20171;-81
2022/08/07 00:31:13;;;;;;;12.65;9.07;;;;;;;23.03;68.41;94480.75;6304558;22;20188;-84
2022/08/07 00:33:40;;;;;;;10.25;8.60;;;;;;;23.03;68.43;94488.69;6305325;22;20515;-84
2022/08/07 00:36:08;;;;;;;11.05;8.90;;;;;;;22.99;67.73;94495.69;6304776;22;20172;-84
2022/08/07 00:38:36;;;;;;;11.90;9.20;;;;;;;23.06;68.76;94503.22;6305687;22;20592;-84
2022/08/07 00:41:05;;;;;;;12.45;9.32;;;;;;;23.04;68.92;94492.13;6305625;22;20226;-83
2022/08/07 00:43:32;;;;;;;11.32;8.55;;;;;;;22.98;68.16;94475.56;6307279;22;20246;-83
2022/08/07 00:46:00;;;;;;;13.30;8.45;;;;;;;23.10;67.04;94491.75;6304096;22;20179;-80
2022/08/07 00:48:27;;;;;;;11.18;8.57;;;;;;;23.12;67.69;94491.41;6304046;22;20515;-81
2022/08/07 00:50:55;;;;;;;10.60;8.55;;;;;;;23.13;66.90;94485.03;6303903;22;20639;-80
2022/08/07 00:53:22;;;;;;;10.35;7.95;;;;;;;23.01;67.13;94476.81;6304654;22;20168;-81
2022/08/07 00:55:49;;;;;;;11.95;8.38;;;;;;;22.95;67.11;94492.06;6303677;22;20218;-80
2022/08/07 00:58:19;;;;;;;10.45;8.30;;;;;;;22.96;67.44;94495.50;6303733;22;20168;-81
2022/08/07 01:00:46;;;;;;;10.73;8.65;;;;;;;22.95;67.90;94489.41;6304750;22;20215;-81
2022/08/07 01:03:13;;;;;;;10.48;7.80;;;;;;;22.89;67.76;94487.16;6304484;22;20165;-82
2022/08/07 01:05:40;;;;;;;10.45;7.57;;;;;;;22.81;67.76;94480.72;6304622;22;20168;-81
2022/08/07 01:08:08;;;;;;;11.35;8.25;;;;;;;22.81;68.67;94491.31;6303430;22;20658;-81
2022/08/07 01:10:34;;;;;;;11.32;8.18;;;;;;;22.79;68.02;94485.53;6305796;22;20176;-81
2022/08/07 01:13:02;;;;;;;10.32;7.53;;;;;;;22.66;69.30;94480.25;6305084;22;20564;-81
2022/08/07 01:15:34;;;;;;;14.40;9.27;;;;;;;22.73;70.51;94488.59;6308766;22;20160;-80
2022/08/07 01:18:01;;;;;;;12.00;8.77;;;;;;;22.75;69.65;94486.41;6303905;22;20608;-81
2022/08/07 01:20:33;;;;;;;14.00;8.65;;;;;;;22.78;68.99;94493.78;6304368;22;20566;-81
2022/08/07 01:23:02;;;;;;;13.80;8.90;;;;;;;22.76;69.87;94496.72;6306038;22;20157;-82
2022/08/07 01:25:29;;;;;;;13.50;8.65;;;;;;;22.73;70.12;94494.69;6306955;22;20164;-82
2022/08/07 01:27:56;;;;;;;13.00;9.10;;;;;;;22.85;70.09;94512.72;6306369;22;20171;-82
2022/08/07 01:30:25;;;;;;;15.07;9.60;;;;;;;22.82;70.49;94505.34;6307798;22;20202;-81
2022/08/07 01:32:52;;;;;;;19.30;11.07;;;;;;;22.69;70.62;94488.38;6306425;22;20476;-80
2022/08/07 01:35:19;;;;;;;16.42;12.35;;;;;;;22.65;70.13;94486.66;6306177;22;20172;-82
2022/08/07 01:37:47;;;;;;;21.88;12.43;;;;;;;22.63;69.73;94495.63;6305787;22;20180;-81
2022/08/07 01:40:19;;;;;;;20.55;12.15;;;;;;;22.53;70.47;94497.72;6306145;22;20211;-82
2022/08/07 01:42:46;;;;;;;17.58;12.00;;;;;;;22.42;71.52;94501.66;6306380;22;20149;-80
2022/08/07 01:45:13;;;;;;;15.15;12.02;;;;;;;22.32;71.90;94509.78;6304431;22;20171;-79
2022/08/07 01:47:40;;;;;;;21.65;12.73;;;;;;;22.25;72.85;94510.16;6304775;22;20168;-80
2022/08/07 01:50:08;;;;;;;16.95;11.75;;;;;;;22.20;73.06;94525.38;6305033;22;20199;-81
2022/08/07 01:52:38;;;;;;;21.73;12.60;;;;;;;22.19;73.29;94521.97;6305599;22;20172;-83
2022/08/07 01:55:07;;;;;;;15.73;12.88;;;;;;;22.32;73.06;94541.56;6306082;22;20159;-81
2022/08/07 01:57:39;;;;;;;15.55;11.55;;;;;;;22.35;71.92;94554.22;6306002;22;20168;-81
2022/08/07 02:00:09;;;;;;;11.75;10.55;;;;;;;22.35;71.59;94570.91;6305461;22;20157;-82
2022/08/07 02:02:40;;;;;;;14.25;10.45;;;;;;;22.45;71.24;94583.19;6306208;22;20165;-82
2022/08/07 02:05:10;;;;;;;12.65;9.85;;;;;;;22.56;71.28;94598.59;6307869;22;20164;-81
2022/08/07 02:07:46;;;;;;;15.02;10.27;;;;;;;22.53;71.08;94588.59;6306151;22;20232;-82
2022/08/07 02:10:14;;;;;;;17.33;9.60;;;;;;;22.68;71.55;94581.44;6305047;22;20196;-81
2022/08/07 02:12:45;;;;;;;13.48;10.15;;;;;;;22.63;73.65;94574.34;6305733;22;20230;-83
2022/08/07 02:15:14;;;;;;;12.88;9.88;;;;;;;22.66;75.55;94588.88;6306202;22;20155;-82
2022/08/07 02:17:43;;;;;;;14.50;10.10;;;;;;;22.69;73.60;94589.09;6305899;22;20215;-82
2022/08/07 02:20:11;;;;;;;17.77;10.20;;;;;;;22.74;75.74;94598.81;6307610;22;20168;-80
2022/08/07 02:22:40;;;;;;;12.40;9.00;;;;;;;22.79;74.67;94601.38;6307651;22;20171;-83
2022/08/07 02:25:09;;;;;;;13.27;9.20;;;;;;;22.82;77.88;94598.91;6306481;22;20168;-83
2022/08/07 02:27:37;;;;;;;10.80;7.75;;;;;;;22.86;79.07;94583.19;6305991;22;20542;-83
2022/08/07 02:30:07;;;;;;;10.55;7.90;;;;;;;22.86;79.28;94572.59;6304619;22;20188;-82
2022/08/07 02:32:38;;;;;;;11.13;7.50;;;;;;;22.71;81.30;94560.44;6305270;22;20542;-80
2022/08/07 02:35:07;;;;;;;10.75;7.22;;;;;;;22.51;83.63;94540.38;6304569;22;20160;-81
2022/08/07 02:37:36;;;;;;;13.35;7.82;;;;;;;22.41;85.10;94537.16;6308067;22;20195;-82
2022/08/07 02:40:05;;;;;;;11.75;8.82;;;;;;;22.21;85.09;94526.94;6304684;22;20179;-82
2022/08/07 02:42:33;;;;;;;12.30;9.07;;;;;;;22.10;85.28;94520.28;6305203;22;20171;-82
2022/08/07 02:45:03;;;;;;;13.35;10.23;;;;;;;22.08;85.65;94522.44;6305084;22;20175;-82
2022/08/07 02:47:31;;;;;;;11.63;9.18;;;;;;;22.10;87.51;94521.06;6305342;22;20483;-81
2022/08/07 02:49:58;;;;;;;10.73;9.45;;;;;;;22.42;89.69;94528.16;6304805;22;20165;-82
2022/08/07 02:52:32;;;;;;;12.57;9.05;;;;;;;22.59;89.27;94523.81;6305148;22;20168;-81
2022/08/07 02:55:03;;;;;;;12.77;8.60;;;;;;;22.66;83.41;94535.88;6308893;22;20153;-81
2022/08/07 02:57:31;;;;;;;11.80;8.15;;;;;;;22.77;82.96;94538.03;6305415;22;20236;-81
2022/08/07 03:00:00;;;;;;;18.75;9.40;;;;;;;22.76;89.49;94527.75;6303661;22;20736;-81
2022/08/07 03:02:27;;;;;;;12.45;9.55;;;;;;;22.75;92.75;94526.16;6303718;22;20172;-81
2022/08/07 03:04:56;;;;;;;10.55;9.05;;;;;;;22.57;89.34;94511.91;6305540;22;20164;-80
2022/08/07 03:07:23;;;;;;;13.02;9.80;;;;;;;22.57;96.24;94499.47;6304629;22;20168;-81
2022/08/07 03:09:50;;;;;;;9.23;8.27;;;;;;;22.47;88.91;94498.91;6303805;22;20196;-84
2022/08/07 03:12:17;;;;;;;12.57;8.57;;;;;;;22.56;89.98;94497.91;6306125;22;20196;-81
2022/08/07 03:14:45;;;;;;;11.85;8.82;;;;;;;22.57;97.31;94496.81;6305134;22;20164;-81
2022/08/07 03:17:12;;;;;;;10.25;8.75;;;;;;;22.62;94.75;94501.25;6305498;22;20482;-83
2022/08/07 03:19:40;;;;;;;12.18;8.23;;;;;;;22.69;93.32;94506.16;6305421;22;20469;-84
2022/08/07 03:22:09;;;;;;;10.55;8.77;;;;;;;22.72;96.68;94509.00;6304476;22;20187;-81
2022/08/07 03:24:36;;;;;;;10.20;9.00;;;;;;;22.65;96.05;94508.63;6305509;22;20164;-80
2022/08/07 03:27:06;;;;;;;13.40;9.65;;;;;;;22.44;96.65;94510.88;6304672;22;20177;-82
2022/08/07 03:29:37;;;;;;;10.00;8.95;;;;;;;22.36;98.80;94518.72;6305993;22;20165;-81
2022/08/07 03:32:07;;;;;;;12.52;9.98;;;;;;;22.32;99.69;94515.06;6303922;22;20238;-81
2022/08/07 03:34:38;;;;;;;14.77;9.50;;;;;;;22.32;99.52;94509.78;6305085;22;20495;-81
2022/08/07 03:37:07;;;;;;;10.98;9.57;;;;;;;22.21;100.00;94508.41;6304376;22;20157;-80
2022/08/07 03:39:36;;;;;;;10.77;9.57;;;;;;;22.11;100.00;94508.63;6304049;22;20199;-80
2022/08/07 03:42:04;;;;;;;11.32;9.48;;;;;;;22.08;100.00;94504.66;6303723;22;20175;-81
2022/08/07 03:44:33;;;;;;;13.88;10.10;;;;;;;22.04;100.00;94515.06;6305416;22;20172;-81
2022/08/07 03:47:01;;;;;;;12.93;9.52;;;;;;;22.04;100.00;94507.13;6304685;22;20238;-81
2022/08/07 03:49:29;;;;;;;12.23;10.23;;;;;;;22.08;100.00;94509.97;6304398;22;20201;-81
2022/08/07 03:51:57;;;;;;;12.40;10.07;;;;;;;22.13;100.00;94524.97;6303069;22;20667;-80
2022/08/07 03:54:24;;;;;;;11.70;9.93;;;;;;;22.12;100.00;94528.69;6304504;22;20177;-81
2022/08/07 03:56:54;;;;;;;14.48;9.95;;;;;;;22.13;100.00;94536.38;6304803;22;20175;-80
2022/08/07 03:59:21;;;;;;;10.75;9.50;;;;;;;22.04;100.00;94524.88;6305970;22;20172;-81
2022/08/07 04:01:50;;;;;;;12.00;9.57;;;;;;;22.09;100.00;94539.88;6304541;22;20175;-81
2022/08/07 04:04:17;;;;;;;13.00;9.23;;;;;;;22.17;100.00;94536.53;6303222;22;20161;-81
2022/08/07 04:06:44;;;;;;;14.20;9.45;;;;;;;22.21;100.00;94535.69;6304000;22;20168;-81
2022/08/07 04:09:12;;;;;;;14.35;9.82;;;;;;;22.13;100.00;94541.66;6304231;22;20196;-80
2022/08/07 04:11:41;;;;;;;11.68;9.20;;;;;;;22.05;100.00;94531.72;6303582;22;20192;-80
2022/08/07 04:14:10;;;;;;;13.27;9.55;;;;;;;22.21;100.00;94533.03;6303351;22;20168;-80
2022/08/07 04:16:37;;;;;;;12.77;9.40;;;;;;;22.37;100.00;94539.59;6303455;22;20175;-81
2022/08/07 04:19:04;;;;;;;13.45;9.00;;;;;;;22.39;99.95;94534.81;6303675;22;20168;-81
2022/08/07 04:21:32;;;;;;;13.32;8.65;;;;;;;22.53;98.48;94548.06;6304724;22;20164;-81
2022/08/07 04:23:59;;;;;;;12.82;9.30;;;;;;;22.53;98.84;94546.19;6303589;22;20168;-81
2022/08/07 04:26:26;;;;;;;10.32;9.20;;;;;;;22.57;100.00;94546.38;6303976;22;20171;-81
2022/08/07 04:28:53;;;;;;;12.90;9.27;;;;;;;22.70;100.00;94564.16;6304509;22;20178;-82
2022/08/07 04:31:23;;;;;;;11.75;8.77;;;;;;;22.76;98.44;94559.56;6304724;22;20187;-79
2022/08/07 04:33:50;;;;;;;12.05;9.55;;;;;;;22.69;98.97;94559.16;6303164;22;20157;-80
2022/08/07 04:36:17;;;;;;;11.88;9.75;;;;;;;22.70;98.49;94566.81;6303063;22;20190;-79
2022/08/07 04:38:44;;;;;;;13.43;9.05;;;;;;;22.70;98.14;94568.69;6304935;22;20686;-76
2022/08/07 04:41:11;;;;;;;9.73;8.48;;;;;;;22.81;99.18;94570.03;6301953;22;20557;-75
2022/08/07 04:43:39;;;;;;;11.10;8.32;;;;;;;22.89;98.77;94569.34;6301757;22;20179;-75
2022/08/07 04:46:11;;;;;;;11.68;8.48;;;;;;;22.91;96.52;94564.56;6299413;22;20172;-75
2022/08/07 04:48:49;;;;;;;11.20;8.68;;;;;;;23.03;96.29;94570.91;6301222;22;20152;-75
2022/08/07 04:51:26;;;;;;;12.68;8.77;;;;;;;23.05;94.99;94566.09;6301034;22;20279;-78
2022/08/07 04:54:00;;;;;;;9.80;7.72;;;;;;;23.05;93.58;94568.75;6299992;22;20178;-76
2022/08/07 04:56:38;;;;;;;12.70;7.97;;;;;;;23.11;94.74;94574.72;6301600;22;20985;-76
2022/08/07 04:59:11;;;;;;;11.93;7.78;;;;;;;23.16;94.08;94580.72;6302983;22;20214;-76
2022/08/07 05:01:42;;;;;;;9.43;7.78;;;;;;;23.07;94.51;94576.41;6303618;22;20153;-76
2022/08/07 05:04:16;;;;;;;9.38;8.18;;;;;;;23.09;95.02;94572.38;6302217;22;20203;-76
2022/08/07 05:06:51;;;;;;;9.43;8.13;;;;;;;23.15;95.37;94588.94;6303681;22;20509;-76
2022/08/07 05:09:26;;;;;;;11.15;8.80;;;;;;;23.15;95.67;94586.28;6303688;22;20262;-76
2022/08/07 05:11:54;;;;;;;12.27;8.27;;;;;;;23.12;93.70;94587.69;6275954;22;20657;-77
2022/08/07 05:14:26;;;;;;;12.07;8.48;;;;;;;23.16;94.07;94596.63;6303803;22;20172;-76
2022/08/07 05:16:59;;;;;;;11.68;8.00;;;;;;;23.20;92.57;94586.22;6304603;22;20160;-75
2022/08/07 05:19:35;;;;;;;9.23;7.82;;;;;;;23.25;91.65;94593.25;6304588;22;20149;-76
2022/08/07 05:22:05;;;;;;;9.80;8.38;;;;;;;23.25;91.91;94595.91;6302924;22;20596;-76
2022/08/07 05:24:33;;;;;;;10.75;8.20;;;;;;;23.31;92.15;94595.50;6304681;22;20163;-77
2022/08/07 05:27:01;;;;;;;11.52;8.45;;;;;;;23.39;92.04;94599.34;6303984;22;20168;-76
2022/08/07 05:29:30;;;;;;;10.88;8.20;;;;;;;23.44;90.88;94597.38;6304550;22;20183;-76
2022/08/07 05:31:58;;;;;;;10.98;8.30;;;;;;;23.59;90.88;94597.03;6302498;22;20221;-76
2022/08/07 05:34:28;;;;;;;10.85;8.18;;;;;;;23.67;89.83;94595.50;6302360;22;20175;-75
2022/08/07 05:36:56;;;;;;;11.52;8.23;;;;;;;23.71;88.62;94593.84;6303948;22;20175;-75
2022/08/07 05:39:23;;;;;;;15.18;8.60;;;;;;;23.62;88.15;94596.44;6303673;22;20627;-75
2022/08/07 05:41:51;;;;;;;12.07;8.60;;;;;;;23.60;88.32;94603.13;6302571;22;20171;-76
2022/08/07 05:44:20;;;;;;;10.93;8.68;;;;;;;23.60;89.08;94608.44;6302797;22;20180;-76
2022/08/07 05:46:49;;;;;;;10.93;8.20;;;;;;;23.70;88.67;94608.19;6302815;22;20175;-76
2022/08/07 05:49:17;;;;;;;10.20;8.70;;;;;;;23.78;88.87;94614.66;6304037;22;20226;-76
2022/08/07 05:51:46;;;;;;;13.57;8.50;;;;;;;23.93;89.18;94616.94;6304724;22;20192;-88
2022/08/07 05:54:13;;;;;;;14.20;7.85;;;;;;;24.06;86.26;94624.88;6303231;22;20179;-77
2022/08/07 05:56:41;;;;;;;12.32;8.02;;;;;;;24.20;85.17;94627.47;6304649;22;20172;-77
2022/08/07 05:59:17;;;;;;;11.40;8.00;;;;;;;24.33;84.25;94633.81;6304724;22;20237;-77
2022/08/07 06:01:47;;;;;;;10.10;7.95;;;;;;;24.37;84.27;94643.50;6302359;22;20152;-79
2022/08/07 06:04:19;;;;;;;10.95;7.72;;;;;;;24.68;81.42;94640.84;6302628;22;20250;-77
2022/08/07 06:06:53;;;;;;;12.45;8.70;;;;;;;24.85;79.97;94648.16;6306221;22;20157;-79
2022/08/07 06:09:22;;;;;;;11.77;7.35;;;;;;;25.05;77.44;94643.06;6303227;22;20541;-77
2022/08/07 06:11:49;;;;;;;8.30;7.30;;;;;;;25.13;75.42;94631.69;6302932;22;20192;-78
2022/08/07 06:14:16;;;;;;;8.73;7.43;;;;;;;25.14;75.34;94638.53;6305233;22;20164;-81
2022/08/07 06:16:46;;;;;;;9.00;7.50;;;;;;;25.11;74.34;94641.81;6305108;22;20168;-83
2022/08/07 06:19:14;;;;;;;10.52;7.68;;;;;;;25.12;75.02;94639.94;6306304;22;20168;-83
2022/08/07 06:21:41;;;;;;;10.52;7.70;;;;;;;25.04;73.47;94633.53;6305163;22;20169;-83
2022/08/07 06:24:10;;;;;;;27.88;8.88;;;;;;;25.03;74.53;94644.47;6303207;22;20164;-80
2022/08/07 06:26:39;;;;;;;28.05;8.75;;;;;;;25.09;73.69;94636.03;6303085;22;20687;-77
2022/08/07 06:29:06;;;;;;;9.98;7.85;;;;;;;25.15;73.72;94642.78;6303256;22;20164;-79
2022/08/07 06:31:33;;;;;;;10.45;7.30;;;;;;;25.23;71.78;94647.34;6302855;22;20188;-78
2022/08/07 06:34:00;;;;;;;9.75;7.40;;;;;;;25.34;71.13;94643.28;6301293;22;20168;-76
2022/08/07 06:36:27;;;;;;;11.80;7.60;;;;;;;25.40;71.20;94641.25;6303879;22;20168;-80
2022/08/07 06:38:55;;;;;;;11.60;7.85;;;;;;;25.44;70.42;94641.44;6305626;22;20164;-88
2022/08/07 06:41:26;;;;;;;13.70;8.27;;;;;;;25.45;70.50;94630.47;6306210;22;20168;-88
2022/08/07 06:43:56;;;;;;;11.40;7.63;;;;;;;25.62;70.28;94646.50;6304598;22;20164;-81
2022/08/07 06:46:23;;;;;;;13.18;7.78;;;;;;;25.76;69.71;94631.16;6303664;22;20179;-81
2022/08/07 06:48:50;;;;;;;11.70;8.20;;;;;;;25.91;68.91;94633.34;6303676;22;20164;-78
2022/08/07 06:51:20;;;;;;;10.52;7.40;;;;;;;25.94;67.45;94634.59;6302830;22;20164;-79
2022/08/07 06:53:48;;;;;;;12.05;7.15;;;;;;;25.97;67.95;94638.50;6302935;22;20692;-77
2022/08/07 06:56:38;;;;;;;20.75;9.93;;;;;;;26.00;66.69;94637.88;6302633;22;20187;-74
2022/08/07 06:59:07;;;;;;;12.07;7.90;;;;;;;26.08;64.81;94637.09;6304283;22;20689;-80
2022/08/07 07:01:36;;;;;;;10.57;7.82;;;;;;;26.06;64.54;94639.31;6303675;22;20199;-77
2022/08/07 07:04:04;;;;;;;11.73;7.75;;;;;;;26.12;63.58;94641.47;6302426;22;20176;-83
2022/08/07 07:06:31;;;;;;;17.13;8.10;;;;;;;26.10;63.38;94640.22;6303686;22;20619;-77
2022/08/07 07:09:16;;;;;;;12.52;7.45;;;;;;;26.11;63.75;94641.78;6303595;22;20655;-78
2022/08/07 07:11:47;;;;;;;11.60;7.93;;;;;;;26.16;63.37;94644.31;6303857;22;20176;-78
2022/08/07 07:14:19;;;;;;;12.85;8.48;;;;;;;26.21;62.98;94628.16;6302214;22;20553;-75
2022/08/07 07:16:47;;;;;;;11.20;7.72;;;;;;;26.30;63.12;94640.38;6302818;22;20175;-75
2022/08/07 07:19:15;;;;;;;10.73;7.93;;;;;;;26.29;62.90;94640.72;6303081;22;20165;-75
2022/08/07 07:21:43;;;;;;;11.38;8.43;;;;;;;26.31;63.06;94647.28;6302782;22;20177;-75
2022/08/07 07:24:10;;;;;;;15.77;7.95;;;;;;;26.41;62.78;94648.81;6301703;22;20233;-75
2022/08/07 07:26:43;;;;;;;11.65;8.10;;;;;;;26.60;62.37;94645.81;6302769;22;20172;-75
2022/08/07 07:29:13;;;;;;;11.32;8.00;;;;;;;26.71;61.81;94644.34;6302434;22;20239;-75
2022/08/07 07:31:46;;;;;;;11.40;8.88;;;;;;;26.75;62.00;94647.97;6302620;22;20523;-75
2022/08/07 07:34:18;;;;;;;9.02;8.13;;;;;;;26.63;62.20;94637.16;6301615;22;20160;-75
2022/08/07 07:36:46;;;;;;;11.63;8.23;;;;;;;26.63;61.91;94639.84;6302323;22;20157;-75
2022/08/07 07:39:16;;;;;;;10.93;7.88;;;;;;;26.73;59.98;94639.47;6302962;22;20172;-75
2022/08/07 07:41:47;;;;;;;9.45;7.50;;;;;;;26.80;59.08;94637.13;6302144;22;20623;-75
2022/08/07 07:44:16;;;;;;;10.13;7.45;;;;;;;26.85;58.81;94645.75;6301395;22;20206;-75
2022/08/07 07:46:45;;;;;;;10.50;7.93;;;;;;;26.91;56.77;94644.47;6302944;22;20231;-75
2022/08/07 07:49:17;;;;;;;9.13;7.25;;;;;;;26.91;56.35;94643.69;6302636;22;20566;-75
2022/08/07 07:51:45;;;;;;;7.82;7.03;;;;;;;26.94;56.17;94638.50;6302154;22;20631;-75
2022/08/07 07:54:15;;;;;;;8.77;6.88;;;;;;;26.94;56.54;94643.81;6301051;22;20172;-75
2022/08/07 07:56:43;;;;;;;8.60;7.20;;;;;;;26.96;55.50;94652.28;6303013;22;20164;-75
2022/08/07 07:59:11;;;;;;;8.68;7.45;;;;;;;27.00;55.43;94644.44;6302722;22;20176;-74
2022/08/07 08:01:42;;;;;;;10.15;8.10;;;;;;;27.05;55.34;94646.91;6302850;22;20172;-75
2022/08/07 08:04:12;;;;;;;11.02;9.18;;;;;;;27.20;55.28;94651.72;6300460;22;20160;-74
2022/08/07 08:06:41;;;;;;;10.10;8.95;;;;;;;27.37;55.10;94653.50;6301930;22;20168;-75
2022/08/07 08:09:08;;;;;;;10.32;9.10;;;;;;;27.49;54.91;94650.94;6302150;22;20514;-74
2022/08/07 08:11:35;;;;;;;12.77;9.90;;;;;;;27.40;53.81;94652.84;6302553;22;20164;-76
2022/08/07 08:14:03;;;;;;;14.38;10.60;;;;;;;27.36;54.78;94651.94;6300429;22;20264;-76
2022/08/07 08:16:34;;;;;;;14.43;12.20;;;;;;;27.51;55.06;94656.72;6301973;22;20654;-75
2022/08/07 08:19:03;;;;;;;13.00;11.45;;;;;;;27.41;54.28;94649.91;6302175;22;20838;-74
2022/08/07 08:27:08;;;;;;;16.75;11.75;;;;;;;27.60;54.18;94663.59;6302121;22;20171;-75
2022/08/07 08:29:42;;;;;;;13.18;11.30;;;;;;;27.69;54.13;94658.19;6302414;22;20214;-74
2022/08/07 08:32:15;;;;;;;12.77;10.80;;;;;;;27.78;53.88;94664.25;6300351;22;20244;-74
2022/08/07 08:34:44;;;;;;;12.73;10.75;;;;;;;27.82;53.76;94667.06;6302030;22;20153;-75
2022/08/07 08:37:14;;;;;;;11.35;10.10;;;;;;;27.87;54.62;94659.63;6302459;22;20168;-76
2022/08/07 08:39:44;;;;;;;11.13;9.63;;;;;;;27.96;53.71;94663.03;6302394;22;20163;-76
2022/08/07 08:42:19;;;;;;;11.45;9.57;;;;;;;28.18;53.56;94667.25;6300843;22;20164;-74
2022/08/07 08:44:52;;;;;;;12.65;10.15;;;;;;;28.25;51.99;94667.53;6302158;22;20156;-75
2022/08/07 08:47:26;;;;;;;12.13;10.35;;;;;;;28.33;52.26;94663.19;6302993;22;20607;-75
2022/08/07 08:49:59;;;;;;;12.82;9.50;;;;;;;28.25;51.47;94667.53;6301470;22;20487;-75
2022/08/07 08:52:32;;;;;;;10.52;9.43;;;;;;;28.17;51.19;94664.94;6301312;22;20187;-75
2022/08/07 08:55:04;;;;;;;11.10;9.55;;;;;;;28.17;50.74;94671.03;6301714;22;20160;-75
2022/08/07 08:57:38;;;;;;;10.02;8.90;;;;;;;28.09;51.17;94666.56;6302313;22;20159;-75
2022/08/07 09:00:08;;;;;;;10.50;8.85;;;;;;;28.12;51.67;94665.91;6300251;22;20666;-75
2022/08/07 09:02:44;;;;;;;10.48;8.73;;;;;;;28.25;52.06;94666.75;6302218;22;20230;-75
2022/08/07 09:05:22;;;;;;;10.85;8.63;;;;;;;28.34;51.35;94662.84;6301958;22;20579;-76
2022/08/07 09:07:57;;;;;;;12.75;9.90;;;;;;;28.37;52.17;94654.19;6306433;22;20175;-75
2022/08/07 09:10:29;;;;;;;11.60;9.68;;;;;;;28.56;52.01;94653.69;6116109;23;20171;-75
2022/08/07 09:13:05;;;;;;;11.43;8.38;;;;;;;28.75;50.05;94658.53;6116495;23;20187;-75
2022/08/07 09:15:39;;;;;;;9.80;8.57;;;;;;;28.90;49.23;94650.66;6116561;23;20218;-76
2022/08/07 09:18:21;;;;;;;11.95;7.78;;;;;;;29.07;49.91;94655.00;6115065;23;20168;-75
2022/08/07 09:20:57;;;;;;;10.32;8.27;;;;;;;29.33;49.23;94652.81;6116190;23;20163;-76
2022/08/07 09:23:33;;;;;;;8.50;7.65;;;;;;;29.45;48.11;94655.50;6116658;23;20157;-75
2022/08/07 09:26:14;;;;;;;9.13;7.60;;;;;;;29.36;47.45;94654.81;6114669;23;20164;-76
2022/08/07 09:28:44;;;;;;;8.85;7.90;;;;;;;29.34;48.27;94640.22;6116752;23;20161;-75
2022/08/07 09:31:20;;;;;;;8.68;7.55;;;;;;;29.41;47.86;94648.47;6117000;23;20164;-75
2022/08/07 09:33:58;;;;;;;9.85;7.68;;;;;;;29.37;47.64;94634.97;6115604;23;20214;-75
2022/08/07 09:36:32;;;;;;;8.73;7.45;;;;;;;29.47;47.41;94626.44;6115839;23;21007;-75
2022/08/07 09:39:10;;;;;;;9.80;7.70;;;;;;;29.46;46.64;94634.84;6116201;23;20163;-75
2022/08/07 09:41:44;;;;;;;9.63;7.47;;;;;;;29.38;47.13;94635.75;6116503;23;20183;-76
2022/08/07 09:44:21;;;;;;;7.80;7.00;;;;;;;29.47;47.11;94639.06;6115662;23;20633;-75
2022/08/07 09:47:02;;;;;;;8.75;6.85;;;;;;;29.63;47.01;94629.22;6117803;23;20219;-74
2022/08/07 09:49:45;;;;;;;7.90;6.80;;;;;;;29.69;46.14;94627.88;6118192;23;20157;-75
2022/08/07 09:52:23;;;;;;;8.10;7.22;;;;;;;29.83;46.11;94633.69;6116670;23;20176;-75
2022/08/07 09:54:57;;;;;;;9.43;7.68;;;;;;;30.01;45.91;94626.13;6117391;23;20161;-75
2022/08/07 09:58:03;;;;;;;10.57;7.28;;;;;;;30.27;45.92;94631.84;6118101;23;20229;-75
2022/08/07 10:00:45;;;;;;;8.00;7.20;;;;;;;30.47;44.80;94625.50;6117944;23;20179;-76
2022/08/07 10:03:35;;;;;;;8.43;7.03;;;;;;;30.63;44.80;94622.84;6117969;23;20157;-75
2022/08/07 10:06:31;;;;;;;8.73;7.03;;;;;;;30.53;43.24;94628.72;6116613;23;20164;-75
2022/08/07 10:09:20;;;;;;;9.75;6.65;;;;;;;30.36;42.81;94621.75;6131248;23;20192;-75
2022/08/07 10:11:58;;;;;;;10.77;6.60;;;;;;;30.32;43.16;94627.00;6146719;23;20175;-75
2022/08/07 10:14:42;;;;;;;7.40;6.57;;;;;;;30.40;42.44;94619.16;6147279;22;20203;-75
2022/08/07 10:17:21;;;;;;;6.88;6.18;;;;;;;30.65;42.36;94623.28;6147033;22;20579;-76
2022/08/07 10:20:08;;;;;;;8.07;6.50;;;;;;;30.90;41.89;94601.28;6146950;22;20163;-75
2022/08/07 10:22:49;;;;;;;8.50;7.15;;;;;;;30.81;41.58;94613.31;6302661;22;20157;-76
2022/08/07 10:25:35;;;;;;;6.40;5.80;;;;;;;30.87;41.08;94609.25;6303597;22;20176;-75
2022/08/07 10:28:26;;;;;;;7.50;6.40;;;;;;;30.84;41.39;94621.47;6301264;22;20183;-75
2022/08/07 10:31:09;;;;;;;7.40;6.65;;;;;;;30.66;42.37;94622.94;6302981;22;20156;-75
2022/08/07 10:33:51;;;;;;;7.65;6.95;;;;;;;30.72;41.99;94613.50;6303202;22;20176;-76
2022/08/07 10:36:35;;;;;;;9.15;6.57;;;;;;;30.95;42.02;94623.66;6301563;22;20160;-75
2022/08/07 10:39:22;;;;;;;9.45;6.32;;;;;;;31.15;41.79;94617.22;6303220;22;20160;-74
2022/08/07 10:41:57;;;;;;;7.57;6.78;;;;;;;30.97;41.69;94621.41;6303138;22;20161;-76
2022/08/07 10:44:33;;;;;;;7.95;6.32;;;;;;;30.96;41.87;94623.31;6302666;22;20158;-76
2022/08/07 10:47:09;;;;;;;8.77;7.32;;;;;;;31.20;42.62;94619.66;6302616;22;20158;-76
2022/08/07 10:49:41;;;;;;;7.80;7.00;;;;;;;31.40;41.84;94619.34;6302455;22;20174;-76
2022/08/07 10:52:14;;;;;;;8.20;7.10;;;;;;;31.54;41.92;94620.84;6301449;22;20167;-76
2022/08/07 10:54:45;;;;;;;8.93;7.10;;;;;;;31.43;40.87;94628.63;6146535;23;20175;-76
2022/08/07 10:57:19;;;;;;;8.00;7.20;;;;;;;31.12;42.60;94621.41;6147221;23;20178;-75
2022/08/07 11:00:02;;;;;;;7.47;6.68;;;;;;;30.99;42.80;94616.47;6146909;23;20163;-75
2022/08/07 11:02:35;;;;;;;8.05;7.10;;;;;;;30.83;41.84;94619.91;6302441;22;20149;-75
2022/08/07 11:05:16;;;;;;;7.40;6.60;;;;;;;30.51;43.25;94622.91;6303058;22;20221;-75
2022/08/07 11:07:50;;;;;;;8.13;6.93;;;;;;;30.18;43.49;94623.16;6301923;22;20536;-75
2022/08/07 11:10:24;;;;;;;7.80;6.65;;;;;;;30.09;43.27;94620.63;6302146;22;21064;-74
2022/08/07 11:12:58;;;;;;;7.82;6.75;;;;;;;30.19;43.55;94617.44;6302691;22;20180;-75
2022/08/07 11:15:30;;;;;;;7.20;6.50;;;;;;;30.42;43.19;94616.94;6303852;22;20156;-75
2022/08/07 11:18:05;;;;;;;8.60;6.50;;;;;;;30.88;42.48;94618.88;6302425;22;20176;-75
2022/08/07 11:20:41;;;;;;;7.30;6.60;;;;;;;31.18;42.21;94617.31;6302878;22;20266;-75
2022/08/07 11:23:16;;;;;;;7.68;6.97;;;;;;;31.22;42.36;94607.44;6303353;22;20591;-75
2022/08/07 11:25:51;;;;;;;7.40;6.70;;;;;;;31.49;41.60;94603.06;6302740;22;20611;-75
2022/08/07 11:28:25;;;;;;;9.05;6.63;;;;;;;31.27;40.46;94598.31;6301275;22;20159;-75
2022/08/07 11:30:57;;;;;;;9.10;6.78;;;;;;;31.16;41.14;94602.69;6303211;22;20152;-74
2022/08/07 11:33:33;;;;;;;8.20;6.88;;;;;;;31.35;40.93;94608.88;6302705;22;20651;-74
2022/08/07 11:36:11;;;;;;;8.70;6.70;;;;;;;31.44;40.93;94604.09;6301796;22;20156;-75
2022/08/07 11:38:47;;;;;;;9.40;6.68;;;;;;;31.56;40.65;94616.66;6302209;22;20160;-76
2022/08/07 11:41:18;;;;;;;9.82;7.28;;;;;;;31.30;41.11;94619.91;6302988;22;20152;-75
2022/08/07 11:43:57;;;;;;;9.18;8.05;;;;;;;31.08;43.01;94623.22;6302926;22;20171;-75
2022/08/07 11:46:39;;;;;;;9.32;7.22;;;;;;;30.84;43.74;94620.69;6302452;22;20164;-76
2022/08/07 11:49:20;;;;;;;10.75;7.40;;;;;;;30.55;44.45;94615.72;6301982;22;20156;-74
2022/08/07 11:52:03;;;;;;;10.80;7.85;;;;;;;30.41;45.27;94618.03;6301889;22;20172;-75